Time;durP1;ratioP1;P1;durP2;ratioP2;P2;SDS_P1;SDS_P2;PMS_P1;PMS_P2;Temp;Humidity;BMP_temperature;BMP_pressure;BME280_temperature;BME280_humidity;BME280_pressure;Samples;Min_cycle;Max_cycle;Signal;HPM_P1;HPM_P2
2022/08/19 00:01:05;;;;;;;15.30;13.70;;;;;;;;;;5021368;28;20953;-55
2022/08/19 00:03:31;;;;;;;17.87;12.87;;;;;;;;;;4997933;28;21090;-55
2022/08/19 00:05:56;;;;;;;16.10;14.33;;;;;;;;;;4979614;28;20890;-54
2022/08/19 00:08:22;;;;;;;16.83;14.90;;;;;;;;;;5004805;28;20447;-55
2022/08/19 00:10:48;;;;;;;23.33;14.83;;;;;;;;;;5008797;28;20570;-53
2022/08/19 00:13:15;;;;;;;19.00;13.40;;;;;;;;;;5003534;28;20439;-53
2022/08/19 00:15:51;;;;;;;17.80;15.43;;;;;;;;;;5008789;28;20195;-54
2022/08/19 00:18:19;;;;;;;14.60;12.77;;;;;;;;;;5007540;28;21398;-54
2022/08/19 00:20:45;;;;;;;15.67;13.17;;;;;;;;;;4986361;28;21151;-54
2022/08/19 00:23:11;;;;;;;15.37;13.67;;;;;;;;;;4997841;28;20478;-54
2022/08/19 00:25:37;;;;;;;17.33;14.50;;;;;;;;;;5010625;28;20710;-55
2022/08/19 00:28:04;;;;;;;17.80;14.07;;;;;;;;;;4981490;28;20195;-53
2022/08/19 00:30:36;;;;;;;17.73;14.50;;;;;;;;;;5013338;28;20475;-54
2022/08/19 00:33:02;;;;;;;14.60;12.30;;;;;;;;;;4982726;28;20534;-53
2022/08/19 00:35:28;;;;;;;15.93;13.80;;;;;;;;;;5015958;28;20542;-53
2022/08/19 00:37:54;;;;;;;16.20;13.70;;;;;;;;;;4990930;28;20438;-54
2022/08/19 00:40:21;;;;;;;16.03;14.03;;;;;;;;;;5012054;28;20442;-54
2022/08/19 00:42:47;;;;;;;15.00;12.93;;;;;;;;;;4986614;28;20223;-54
2022/08/19 00:45:19;;;;;;;16.90;14.00;;;;;;;;;;5016296;28;20516;-54
2022/08/19 00:47:45;;;;;;;15.50;13.33;;;;;;;;;;5019122;28;20977;-54
2022/08/19 00:50:13;;;;;;;15.20;13.50;;;;;;;;;;5019097;28;20554;-54
2022/08/19 00:52:42;;;;;;;16.03;13.70;;;;;;;;;;4986969;28;20468;-54
2022/08/19 00:55:11;;;;;;;14.33;12.80;;;;;;;;;;5005097;28;20968;-54
2022/08/19 00:57:38;;;;;;;19.20;14.63;;;;;;;;;;4964660;28;20531;-53
2022/08/19 01:00:10;;;;;;;15.53;13.13;;;;;;;;;;4991757;28;20771;-55
2022/08/19 01:02:36;;;;;;;19.33;15.50;;;;;;;;;;5015543;28;20788;-56
2022/08/19 01:05:03;;;;;;;17.53;13.60;;;;;;;;;;4961385;28;20484;-53
2022/08/19 01:07:55;;;;;;;17.93;13.33;;;;;;;;;;5016682;28;20427;-54
2022/08/19 01:10:25;;;;;;;15.37;13.13;;;;;;;;;;5000612;28;20463;-53
2022/08/19 01:13:07;;;;;;;16.63;14.77;;;;;;;;;;5011325;28;21335;-54
2022/08/19 01:15:35;;;;;;;17.73;14.00;;;;;;;;;;5013893;28;20965;-54
2022/08/19 01:18:01;;;;;;;15.70;14.10;;;;;;;;;;4991206;28;21027;-54
2022/08/19 01:20:27;;;;;;;17.43;15.67;;;;;;;;;;4995119;28;20741;-55
2022/08/19 01:22:54;;;;;;;16.63;14.17;;;;;;;;;;4999716;28;20876;-53
2022/08/19 01:25:22;;;;;;;17.03;14.90;;;;;;;;;;4991772;28;20450;-53
2022/08/19 01:28:04;;;;;;;17.13;14.93;;;;;;;;;;5012722;28;20937;-55
2022/08/19 01:30:33;;;;;;;17.43;14.33;;;;;;;;;;5000782;28;21960;-55
2022/08/19 01:33:23;;;;;;;16.10;14.00;;;;;;;;;;5007966;28;20451;-56
2022/08/19 01:35:53;;;;;;;21.27;15.10;;;;;;;;;;4997819;28;21036;-53
2022/08/19 01:38:31;;;;;;;16.93;14.60;;;;;;;;;;4979962;28;20653;-55
2022/08/19 01:40:58;;;;;;;20.27;14.33;;;;;;;;;;5014086;28;20464;-55
2022/08/19 01:43:24;;;;;;;16.70;14.70;;;;;;;;;;4981853;28;21504;-55
2022/08/19 01:45:50;;;;;;;19.07;15.50;;;;;;;;;;5015962;28;20473;-54
2022/08/19 01:48:16;;;;;;;21.40;14.60;;;;;;;;;;4989355;28;22334;-55
2022/08/19 01:50:43;;;;;;;16.90;15.20;;;;;;;;;;5011865;28;20524;-60
2022/08/19 01:53:19;;;;;;;19.10;15.33;;;;;;;;;;4995741;28;20454;-55
2022/08/19 01:55:48;;;;;;;22.60;15.70;;;;;;;;;;5015292;28;20435;-55
2022/08/19 01:58:23;;;;;;;16.30;14.60;;;;;;;;;;4998277;28;20508;-52
2022/08/19 02:00:50;;;;;;;18.50;15.63;;;;;;;;;;5016009;28;20439;-56
2022/08/19 02:03:16;;;;;;;18.33;15.47;;;;;;;;;;4993045;28;20662;-56
2022/08/19 02:05:42;;;;;;;18.13;16.07;;;;;;;;;;5016341;28;20431;-55
2022/08/19 02:08:47;;;;;;;20.83;16.20;;;;;;;;;;5002587;28;20992;-55
2022/08/19 02:11:05;;;;;;;18.70;16.73;;;;;;;;;;4973486;28;21659;-52
2022/08/19 02:13:31;;;;;;;18.67;16.43;;;;;;;;;;5008866;28;20565;-55
2022/08/19 02:15:57;;;;;;;19.23;15.70;;;;;;;;;;4995318;28;20772;-55
2022/08/19 02:18:27;;;;;;;19.30;15.93;;;;;;;;;;4995708;28;21108;-56
2022/08/19 02:20:58;;;;;;;18.33;15.97;;;;;;;;;;5001384;28;20473;-55
2022/08/19 02:23:27;;;;;;;22.33;17.10;;;;;;;;;;4988738;28;20525;-54
2022/08/19 02:26:02;;;;;;;20.00;16.27;;;;;;;;;;5017146;28;20474;-53
2022/08/19 02:28:32;;;;;;;21.23;18.23;;;;;;;;;;4996899;28;20472;-55
2022/08/19 02:31:17;;;;;;;21.70;17.03;;;;;;;;;;5011603;28;20475;-58
2022/08/19 02:33:50;;;;;;;18.87;16.43;;;;;;;;;;5006747;28;20586;-55
2022/08/19 02:36:16;;;;;;;19.33;15.70;;;;;;;;;;4990594;28;20534;-54
2022/08/19 02:38:44;;;;;;;19.17;17.13;;;;;;;;;;5007433;28;20447;-53
2022/08/19 02:41:45;;;;;;;19.80;16.73;;;;;;;;;;5005467;28;20443;-55
2022/08/19 02:44:12;;;;;;;17.90;15.10;;;;;;;;;;4963787;28;20470;-54
2022/08/19 02:46:47;;;;;;;21.03;16.40;;;;;;;;;;4986330;28;20449;-55
2022/08/19 02:49:16;;;;;;;21.67;17.30;;;;;;;;;;5026082;28;20439;-54
2022/08/19 02:51:42;;;;;;;23.20;16.83;;;;;;;;;;4990740;28;20693;-56
2022/08/19 02:54:12;;;;;;;20.43;15.57;;;;;;;;;;5015190;28;20496;-56
2022/08/19 02:56:46;;;;;;;22.33;16.57;;;;;;;;;;4996242;28;20913;-56
2022/08/19 02:59:12;;;;;;;22.00;17.83;;;;;;;;;;5019517;28;20858;-55
2022/08/19 03:01:39;;;;;;;20.63;16.70;;;;;;;;;;5010844;28;20427;-54
2022/08/19 03:04:05;;;;;;;22.77;18.13;;;;;;;;;;5014300;28;20553;-54
2022/08/19 03:06:43;;;;;;;24.73;18.23;;;;;;;;;;5008904;28;20515;-54
2022/08/19 03:09:09;;;;;;;24.93;18.80;;;;;;;;;;4993131;28;20514;-54
2022/08/19 03:11:35;;;;;;;23.87;18.77;;;;;;;;;;4973228;28;20460;-55
2022/08/19 03:14:01;;;;;;;22.73;17.93;;;;;;;;;;5009457;28;20514;-57
2022/08/19 03:16:28;;;;;;;21.63;17.97;;;;;;;;;;5006889;28;20819;-54
2022/08/19 03:18:59;;;;;;;25.83;20.60;;;;;;;;;;4995789;28;20435;-61
2022/08/19 03:21:46;;;;;;;24.10;18.93;;;;;;;;;;4964963;28;20710;-53
2022/08/19 03:24:13;;;;;;;26.57;19.97;;;;;;;;;;5013697;28;20573;-54
2022/08/19 03:26:43;;;;;;;21.20;18.77;;;;;;;;;;4989748;28;20824;-54
2022/08/19 03:29:10;;;;;;;29.57;19.33;;;;;;;;;;4995601;28;20459;-54
2022/08/19 03:31:47;;;;;;;21.77;18.63;;;;;;;;;;4988753;28;20479;-55
2022/08/19 03:34:18;;;;;;;26.00;19.03;;;;;;;;;;5010429;28;20975;-53
2022/08/19 03:36:45;;;;;;;23.17;19.17;;;;;;;;;;4998152;28;20446;-54
2022/08/19 03:39:14;;;;;;;21.60;17.30;;;;;;;;;;4994017;28;20447;-54
2022/08/19 03:41:40;;;;;;;26.43;20.60;;;;;;;;;;5010276;28;20717;-54
2022/08/19 03:44:08;;;;;;;23.23;19.33;;;;;;;;;;5014689;28;20764;-54
2022/08/19 03:46:57;;;;;;;24.90;20.77;;;;;;;;;;4960166;28;20493;-54
2022/08/19 03:49:27;;;;;;;27.00;19.97;;;;;;;;;;5006120;28;20428;-54
2022/08/19 03:51:53;;;;;;;23.60;20.30;;;;;;;;;;5011715;28;20761;-54
2022/08/19 03:54:22;;;;;;;28.30;23.10;;;;;;;;;;4982402;28;20538;-53
2022/08/19 03:56:48;;;;;;;26.20;20.43;;;;;;;;;;5006128;28;20440;-54
2022/08/19 03:59:16;;;;;;;25.53;20.00;;;;;;;;;;4985255;28;20499;-55
2022/08/19 04:01:42;;;;;;;25.90;21.47;;;;;;;;;;5009503;28;21184;-54
2022/08/19 04:04:08;;;;;;;25.63;20.93;;;;;;;;;;4984152;28;20494;-54
2022/08/19 04:06:35;;;;;;;26.87;22.23;;;;;;;;;;5000549;28;20434;-53
2022/08/19 04:09:02;;;;;;;25.30;21.90;;;;;;;;;;5000926;28;20537;-56
2022/08/19 04:11:32;;;;;;;26.27;22.00;;;;;;;;;;5008359;28;20945;-54
2022/08/19 04:13:59;;;;;;;26.90;21.97;;;;;;;;;;4988881;28;20521;-54
2022/08/19 04:16:28;;;;;;;25.10;19.47;;;;;;;;;;4989890;28;20451;-54
2022/08/19 04:18:54;;;;;;;29.57;23.60;;;;;;;;;;4973110;28;20435;-53
2022/08/19 04:21:21;;;;;;;28.70;22.20;;;;;;;;;;5013198;28;20491;-54
2022/08/19 04:23:47;;;;;;;27.90;22.97;;;;;;;;;;4991969;28;21115;-55
2022/08/19 04:26:18;;;;;;;27.20;22.30;;;;;;;;;;5017328;28;20943;-55
2022/08/19 04:28:51;;;;;;;26.37;22.20;;;;;;;;;;4987458;28;20642;-54
2022/08/19 04:31:27;;;;;;;26.30;21.10;;;;;;;;;;5011037;28;20439;-55
2022/08/19 04:33:56;;;;;;;27.10;22.93;;;;;;;;;;5015015;28;20450;-56
2022/08/19 04:36:46;;;;;;;30.80;24.03;;;;;;;;;;4994940;28;20439;-54
2022/08/19 04:39:14;;;;;;;28.47;21.37;;;;;;;;;;5011817;28;20542;-55
2022/08/19 04:44:34;;;;;;;32.03;23.00;;;;;;;;;;5017919;28;20485;-56
2022/08/19 04:47:00;;;;;;;33.03;22.23;;;;;;;;;;5020129;28;20435;-57
2022/08/19 04:49:26;;;;;;;26.60;21.80;;;;;;;;;;5024768;28;20443;-55
2022/08/19 04:51:54;;;;;;;29.43;21.40;;;;;;;;;;4969073;28;24578;-57
2022/08/19 04:54:22;;;;;;;31.50;22.23;;;;;;;;;;5011828;28;20450;-54
2022/08/19 04:56:51;;;;;;;27.60;21.60;;;;;;;;;;5011994;28;20454;-53
2022/08/19 04:59:19;;;;;;;27.93;22.50;;;;;;;;;;5016439;28;20466;-57
2022/08/19 05:02:12;;;;;;;28.60;22.47;;;;;;;;;;5002635;28;20947;-56
2022/08/19 05:04:38;;;;;;;26.07;22.17;;;;;;;;;;5019117;28;20544;-54
2022/08/19 05:07:04;;;;;;;28.50;21.40;;;;;;;;;;5021717;28;20533;-56
2022/08/19 05:09:42;;;;;;;25.53;20.10;;;;;;;;;;5019955;28;20949;-56
2022/08/19 05:12:08;;;;;;;28.03;21.17;;;;;;;;;;4999181;28;20177;-54
2022/08/19 05:14:49;;;;;;;30.17;22.60;;;;;;;;;;5021835;28;20443;-55
2022/08/19 05:17:18;;;;;;;24.43;21.90;;;;;;;;;;4992085;28;20457;-53
2022/08/19 05:22:34;;;;;;;27.17;21.83;;;;;;;;;;5015061;28;20515;-56
2022/08/19 05:25:02;;;;;;;30.00;21.87;;;;;;;;;;5025397;28;20485;-57
2022/08/19 05:27:28;;;;;;;26.60;21.83;;;;;;;;;;5022399;28;20792;-58
2022/08/19 05:29:53;;;;;;;24.93;20.20;;;;;;;;;;5005029;28;21045;-56
2022/08/19 05:32:27;;;;;;;25.73;21.70;;;;;;;;;;5013657;28;20435;-55
2022/08/19 05:35:03;;;;;;;27.87;22.70;;;;;;;;;;4990393;28;21598;-56
2022/08/19 05:37:29;;;;;;;25.00;20.23;;;;;;;;;;5000878;28;20431;-56
2022/08/19 05:39:55;;;;;;;26.57;21.80;;;;;;;;;;4992527;28;21050;-55
2022/08/19 05:42:22;;;;;;;24.63;21.27;;;;;;;;;;4990622;28;21037;-55
2022/08/19 05:45:03;;;;;;;23.17;20.43;;;;;;;;;;5012329;28;20471;-55
2022/08/19 05:47:35;;;;;;;25.87;21.27;;;;;;;;;;5021804;28;20458;-55
2022/08/19 05:50:06;;;;;;;26.37;22.40;;;;;;;;;;5013769;28;21520;-56
2022/08/19 05:52:32;;;;;;;27.17;20.60;;;;;;;;;;5023295;28;20441;-55
2022/08/19 05:54:58;;;;;;;24.30;20.70;;;;;;;;;;4986939;28;20451;-57
2022/08/19 05:57:24;;;;;;;29.70;22.43;;;;;;;;;;5021710;28;20443;-55
2022/08/19 05:59:51;;;;;;;27.70;21.50;;;;;;;;;;5022786;28;21194;-54
2022/08/19 06:02:17;;;;;;;29.50;20.50;;;;;;;;;;5028915;28;21067;-54
2022/08/19 06:04:43;;;;;;;24.63;21.67;;;;;;;;;;5006885;28;20579;-56
2022/08/19 06:07:09;;;;;;;28.40;22.57;;;;;;;;;;5013288;28;20527;-55
2022/08/19 06:09:35;;;;;;;22.13;19.73;;;;;;;;;;5024271;28;20446;-56
2022/08/19 06:12:02;;;;;;;24.60;20.03;;;;;;;;;;5023121;28;20431;-55
2022/08/19 06:14:32;;;;;;;29.67;21.97;;;;;;;;;;5013115;28;21188;-57
2022/08/19 06:16:59;;;;;;;30.70;21.70;;;;;;;;;;5012064;28;20517;-56
2022/08/19 06:19:26;;;;;;;25.23;19.90;;;;;;;;;;5020937;28;20439;-56
2022/08/19 06:21:52;;;;;;;25.00;19.80;;;;;;;;;;5003580;28;20431;-57
2022/08/19 06:24:19;;;;;;;28.00;21.30;;;;;;;;;;5019934;28;20487;-56
2022/08/19 06:26:46;;;;;;;28.53;21.53;;;;;;;;;;5018090;28;20430;-55
2022/08/19 06:29:26;;;;;;;25.83;20.53;;;;;;;;;;5018662;28;20463;-57
2022/08/19 06:31:56;;;;;;;25.20;19.77;;;;;;;;;;4996820;28;21196;-56
2022/08/19 06:34:33;;;;;;;23.30;18.20;;;;;;;;;;4972999;28;20461;-55
2022/08/19 06:37:01;;;;;;;23.20;19.23;;;;;;;;;;4980754;28;20432;-55
2022/08/19 06:39:28;;;;;;;25.67;21.27;;;;;;;;;;5017278;28;21061;-55
2022/08/19 06:41:55;;;;;;;26.93;21.37;;;;;;;;;;5010175;28;20444;-55
2022/08/19 06:44:21;;;;;;;25.37;20.90;;;;;;;;;;5023229;28;20476;-55
2022/08/19 06:46:48;;;;;;;24.27;20.87;;;;;;;;;;5019677;28;20447;-56
2022/08/19 06:49:14;;;;;;;25.90;21.90;;;;;;;;;;5018935;28;20485;-56
2022/08/19 06:51:42;;;;;;;28.70;22.73;;;;;;;;;;4981409;28;20443;-56
2022/08/19 06:54:07;;;;;;;24.50;21.17;;;;;;;;;;5020417;28;20422;-56
2022/08/19 06:56:34;;;;;;;24.43;19.97;;;;;;;;;;5014384;28;20459;-53
2022/08/19 06:59:07;;;;;;;24.00;19.03;;;;;;;;;;5016758;28;20444;-55
2022/08/19 07:01:39;;;;;;;26.50;22.40;;;;;;;;;;4999093;28;20447;-56
2022/08/19 07:04:06;;;;;;;26.43;21.33;;;;;;;;;;5021469;28;20474;-56
2022/08/19 07:06:33;;;;;;;26.60;21.00;;;;;;;;;;4995350;28;20530;-57
2022/08/19 07:08:59;;;;;;;25.63;22.20;;;;;;;;;;5014676;28;20431;-55
2022/08/19 07:11:25;;;;;;;26.50;22.17;;;;;;;;;;5002459;28;20505;-56
2022/08/19 07:13:51;;;;;;;26.00;23.00;;;;;;;;;;5003622;28;20432;-56
2022/08/19 07:16:19;;;;;;;26.97;21.17;;;;;;;;;;5022590;28;20443;-56
2022/08/19 07:18:45;;;;;;;26.53;21.93;;;;;;;;;;5022950;28;20441;-56
2022/08/19 07:21:15;;;;;;;29.10;21.60;;;;;;;;;;5006203;28;20441;-56
2022/08/19 07:23:48;;;;;;;27.50;22.00;;;;;;;;;;4972716;28;20471;-56
2022/08/19 07:26:18;;;;;;;27.57;19.93;;;;;;;;;;5016828;28;20441;-57
2022/08/19 07:28:44;;;;;;;26.00;21.37;;;;;;;;;;5018153;28;20439;-56
2022/08/19 07:31:12;;;;;;;32.00;23.93;;;;;;;;;;5022408;28;20434;-56
2022/08/19 07:33:38;;;;;;;25.83;19.23;;;;;;;;;;4984106;28;20177;-56
2022/08/19 07:36:05;;;;;;;26.00;20.40;;;;;;;;;;5005173;28;21002;-56
2022/08/19 07:38:31;;;;;;;27.57;19.93;;;;;;;;;;5019062;28;20431;-57
2022/08/19 07:40:57;;;;;;;24.27;19.57;;;;;;;;;;5023987;28;20439;-56
2022/08/19 07:43:25;;;;;;;30.63;21.93;;;;;;;;;;4991487;28;20482;-56
2022/08/19 07:45:55;;;;;;;27.07;19.70;;;;;;;;;;5017600;28;20533;-56
2022/08/19 07:48:23;;;;;;;24.43;19.20;;;;;;;;;;5007204;28;22069;-56
2022/08/19 07:50:49;;;;;;;26.07;20.23;;;;;;;;;;5015613;28;20447;-56
2022/08/19 07:53:15;;;;;;;27.03;20.27;;;;;;;;;;4974590;28;20432;-56
2022/08/19 07:55:41;;;;;;;23.00;18.57;;;;;;;;;;5021908;28;20453;-56
2022/08/19 07:58:07;;;;;;;21.77;17.70;;;;;;;;;;4994063;28;21129;-56
2022/08/19 08:00:33;;;;;;;24.73;19.90;;;;;;;;;;5016355;28;20514;-56
2022/08/19 08:02:59;;;;;;;25.87;19.40;;;;;;;;;;4996409;28;20514;-57
2022/08/19 08:10:54;;;;;;;24.97;19.97;;;;;;;;;;5017209;28;20449;-59
2022/08/19 08:13:20;;;;;;;22.03;19.50;;;;;;;;;;5022246;28;20435;-55
2022/08/19 08:15:46;;;;;;;21.43;19.23;;;;;;;;;;4987822;28;20974;-57
2022/08/19 08:18:13;;;;;;;20.67;17.80;;;;;;;;;;5018458;28;20444;-58
2022/08/19 08:20:51;;;;;;;23.60;18.10;;;;;;;;;;5017282;28;20465;-57
2022/08/19 08:23:22;;;;;;;24.07;19.30;;;;;;;;;;5006395;28;20482;-56
2022/08/19 08:25:48;;;;;;;22.77;17.50;;;;;;;;;;5017730;28;20423;-57
2022/08/19 08:28:14;;;;;;;22.80;17.50;;;;;;;;;;5005720;28;20820;-56
2022/08/19 08:30:43;;;;;;;19.57;16.93;;;;;;;;;;5024309;28;20435;-57
2022/08/19 08:33:09;;;;;;;22.23;19.00;;;;;;;;;;4998764;28;20489;-57
2022/08/19 08:35:34;;;;;;;24.20;19.07;;;;;;;;;;5018765;28;20447;-57
2022/08/19 08:38:02;;;;;;;19.60;17.50;;;;;;;;;;4976108;28;21025;-57
2022/08/19 08:40:29;;;;;;;21.97;19.40;;;;;;;;;;5022961;28;20781;-57
2022/08/19 08:43:06;;;;;;;22.10;19.60;;;;;;;;;;4981474;28;20580;-58
2022/08/19 08:45:36;;;;;;;24.87;17.97;;;;;;;;;;5018714;28;20941;-57
2022/08/19 08:48:03;;;;;;;23.20;18.00;;;;;;;;;;4977762;28;20445;-58
2022/08/19 08:50:30;;;;;;;21.33;18.77;;;;;;;;;;5003921;28;20794;-56
2022/08/19 08:52:56;;;;;;;21.60;19.33;;;;;;;;;;4994094;28;20443;-56
2022/08/19 08:55:24;;;;;;;20.83;18.70;;;;;;;;;;4993082;28;20560;-56
2022/08/19 08:57:54;;;;;;;21.30;18.10;;;;;;;;;;4994641;28;21443;-56
2022/08/19 09:00:26;;;;;;;24.10;19.30;;;;;;;;;;5015027;28;20438;-56
2022/08/19 09:02:52;;;;;;;23.40;20.30;;;;;;;;;;5001043;28;20459;-57
2022/08/19 09:05:20;;;;;;;20.80;18.50;;;;;;;;;;5021742;28;20534;-57
2022/08/19 09:07:56;;;;;;;18.83;16.83;;;;;;;;;;5016660;28;20435;-58
2022/08/19 09:10:41;;;;;;;23.90;18.43;;;;;;;;;;5019857;28;20446;-58
2022/08/19 09:13:16;;;;;;;20.27;17.83;;;;;;;;;;4993141;28;20475;-59
2022/08/19 09:16:03;;;;;;;23.30;17.73;;;;;;;;;;5020722;28;20435;-56
2022/08/19 09:18:48;;;;;;;20.07;17.10;;;;;;;;;;5023533;28;20443;-58
2022/08/19 09:21:15;;;;;;;20.07;17.37;;;;;;;;;;4982320;28;21705;-58
2022/08/19 09:23:42;;;;;;;21.87;17.90;;;;;;;;;;5021029;28;20470;-57
2022/08/19 09:26:09;;;;;;;19.63;17.17;;;;;;;;;;4983235;28;20498;-58
2022/08/19 09:28:36;;;;;;;20.37;17.73;;;;;;;;;;5022389;28;20979;-58
2022/08/19 09:31:02;;;;;;;20.73;17.07;;;;;;;;;;5004983;28;20478;-58
2022/08/19 09:33:28;;;;;;;19.30;17.23;;;;;;;;;;5019128;28;20525;-57
2022/08/19 09:36:05;;;;;;;18.30;16.40;;;;;;;;;;5009434;28;22844;-58
2022/08/19 09:38:31;;;;;;;23.27;17.70;;;;;;;;;;5018228;28;20448;-58
2022/08/19 09:41:02;;;;;;;18.90;16.90;;;;;;;;;;5007003;28;21111;-58
2022/08/19 09:43:28;;;;;;;21.30;16.33;;;;;;;;;;5007546;28;20506;-58
2022/08/19 09:45:53;;;;;;;19.40;17.40;;;;;;;;;;4999925;28;23844;-58
2022/08/19 09:48:21;;;;;;;17.23;15.43;;;;;;;;;;5016879;28;20446;-58
2022/08/19 09:50:47;;;;;;;19.10;16.70;;;;;;;;;;5014908;28;20743;-58
2022/08/19 09:53:13;;;;;;;20.03;15.83;;;;;;;;;;4982174;28;20470;-59
2022/08/19 09:55:43;;;;;;;19.77;16.90;;;;;;;;;;5023652;28;20184;-57
2022/08/19 09:58:10;;;;;;;18.37;16.47;;;;;;;;;;4995906;28;20447;-58
2022/08/19 10:00:38;;;;;;;19.60;17.17;;;;;;;;;;5014127;28;20946;-57
2022/08/19 10:03:04;;;;;;;17.97;15.50;;;;;;;;;;4991848;28;20447;-58
2022/08/19 10:08:16;;;;;;;20.83;15.60;;;;;;;;;;5012750;28;20461;-57
2022/08/19 10:10:46;;;;;;;21.33;15.83;;;;;;;;;;5023352;28;20510;-57
2022/08/19 10:13:12;;;;;;;16.80;14.13;;;;;;;;;;4981472;28;20439;-58
2022/08/19 10:15:41;;;;;;;16.60;14.80;;;;;;;;;;4989347;28;20448;-56
2022/08/19 10:18:07;;;;;;;15.00;13.60;;;;;;;;;;4994873;28;20442;-58
2022/08/19 10:20:35;;;;;;;19.47;13.00;;;;;;;;;;5019553;28;20538;-57
2022/08/19 10:23:01;;;;;;;19.40;14.67;;;;;;;;;;5009093;28;20455;-58
2022/08/19 10:25:27;;;;;;;16.13;13.60;;;;;;;;;;5019481;28;20785;-57
2022/08/19 10:27:53;;;;;;;15.60;14.07;;;;;;;;;;5014938;28;20435;-59
2022/08/19 10:30:25;;;;;;;18.70;14.43;;;;;;;;;;5020017;28;20451;-59
2022/08/19 10:32:53;;;;;;;17.50;13.20;;;;;;;;;;5015071;28;20435;-58
2022/08/19 10:35:19;;;;;;;16.17;13.23;;;;;;;;;;4997821;28;21351;-57
2022/08/19 10:37:59;;;;;;;15.30;13.90;;;;;;;;;;5023419;28;20518;-58
2022/08/19 10:40:28;;;;;;;14.83;13.10;;;;;;;;;;5017710;28;20897;-58
2022/08/19 10:42:55;;;;;;;15.80;14.13;;;;;;;;;;4998079;28;20427;-56
2022/08/19 10:45:25;;;;;;;15.77;12.30;;;;;;;;;;5014997;28;21072;-57
2022/08/19 10:48:02;;;;;;;14.83;13.27;;;;;;;;;;4996620;28;20820;-58
2022/08/19 10:53:25;;;;;;;13.53;12.13;;;;;;;;;;5004676;28;20934;-58
2022/08/19 10:58:36;;;;;;;17.00;12.23;;;;;;;;;;4995834;28;20503;-56
2022/08/19 11:01:02;;;;;;;15.37;13.00;;;;;;;;;;5019496;28;20565;-56
2022/08/19 11:03:29;;;;;;;12.43;10.97;;;;;;;;;;4985743;28;20486;-57
2022/08/19 11:05:59;;;;;;;13.53;11.97;;;;;;;;;;5018054;28;20442;-57
2022/08/19 11:08:26;;;;;;;14.47;13.13;;;;;;;;;;4998987;28;20824;-56
2022/08/19 11:11:00;;;;;;;12.37;10.50;;;;;;;;;;4992707;28;20435;-56
2022/08/19 11:13:26;;;;;;;13.13;10.93;;;;;;;;;;5012913;28;20438;-59
2022/08/19 11:15:59;;;;;;;16.67;11.87;;;;;;;;;;5002660;28;20447;-58
2022/08/19 11:18:26;;;;;;;14.40;12.30;;;;;;;;;;4991708;28;20530;-58
2022/08/19 11:20:52;;;;;;;12.47;10.97;;;;;;;;;;5020596;28;20431;-59
2022/08/19 11:23:18;;;;;;;15.33;13.27;;;;;;;;;;5001489;28;20464;-58
2022/08/19 11:25:45;;;;;;;12.30;11.00;;;;;;;;;;5003030;28;20439;-58
2022/08/19 11:28:11;;;;;;;14.90;10.90;;;;;;;;;;4997619;28;20446;-57
2022/08/19 11:30:38;;;;;;;14.37;11.53;;;;;;;;;;5019427;28;20482;-57
2022/08/19 11:33:04;;;;;;;12.93;11.73;;;;;;;;;;5009828;28;20440;-57
2022/08/19 11:35:30;;;;;;;12.60;11.40;;;;;;;;;;5025129;28;20944;-58
2022/08/19 11:38:01;;;;;;;13.10;11.30;;;;;;;;;;4996743;28;20296;-57
2022/08/19 11:40:27;;;;;;;12.60;11.30;;;;;;;;;;4991687;28;20496;-58
2022/08/19 11:42:56;;;;;;;13.67;11.67;;;;;;;;;;5020042;28;20953;-58
2022/08/19 11:45:23;;;;;;;12.50;10.30;;;;;;;;;;4992001;28;20455;-58
2022/08/19 11:47:49;;;;;;;11.47;10.30;;;;;;;;;;5021123;28;20856;-59
2022/08/19 11:50:16;;;;;;;12.40;10.43;;;;;;;;;;4974102;28;20601;-59
2022/08/19 11:52:43;;;;;;;11.17;10.10;;;;;;;;;;5006238;28;20973;-58
2022/08/19 11:55:09;;;;;;;10.33;9.37;;;;;;;;;;4978008;28;21412;-59
2022/08/19 11:57:35;;;;;;;10.40;8.90;;;;;;;;;;4983039;28;21364;-57
2022/08/19 12:00:02;;;;;;;12.13;9.83;;;;;;;;;;5014000;28;20435;-59
2022/08/19 12:02:28;;;;;;;10.87;9.77;;;;;;;;;;4997168;28;22576;-57
2022/08/19 12:04:54;;;;;;;11.10;10.00;;;;;;;;;;5020137;28;20491;-57
2022/08/19 12:07:20;;;;;;;11.37;10.37;;;;;;;;;;5002330;28;20188;-58
2022/08/19 12:09:47;;;;;;;11.43;10.43;;;;;;;;;;5021544;28;20188;-57
2022/08/19 12:12:13;;;;;;;12.23;10.30;;;;;;;;;;4979910;28;20247;-58
2022/08/19 12:14:39;;;;;;;11.80;9.03;;;;;;;;;;5018686;28;20515;-57
2022/08/19 12:17:07;;;;;;;11.07;9.97;;;;;;;;;;4996583;28;20968;-57
2022/08/19 12:19:33;;;;;;;10.70;9.63;;;;;;;;;;5020244;28;20470;-58
2022/08/19 12:22:01;;;;;;;11.60;10.50;;;;;;;;;;4961547;28;20447;-58
2022/08/19 12:24:27;;;;;;;10.63;9.17;;;;;;;;;;5018650;28;20486;-58
2022/08/19 12:26:56;;;;;;;10.83;9.60;;;;;;;;;;4991872;28;20466;-59
2022/08/19 12:29:23;;;;;;;14.67;10.77;;;;;;;;;;5005750;28;20473;-58
2022/08/19 12:31:53;;;;;;;10.30;9.30;;;;;;;;;;5014078;28;20525;-59
2022/08/19 12:34:21;;;;;;;10.57;9.43;;;;;;;;;;5009010;28;20509;-58
2022/08/19 12:36:49;;;;;;;11.40;10.33;;;;;;;;;;4994918;28;20478;-57
2022/08/19 12:39:14;;;;;;;13.33;10.30;;;;;;;;;;5017242;28;20518;-56
2022/08/19 12:41:40;;;;;;;10.90;9.20;;;;;;;;;;4994852;28;20835;-56
2022/08/19 12:44:12;;;;;;;9.07;8.27;;;;;;;;;;4999554;28;20232;-59
2022/08/19 12:46:38;;;;;;;9.80;8.90;;;;;;;;;;5021072;28;20459;-57
2022/08/19 12:49:04;;;;;;;12.47;9.27;;;;;;;;;;5017206;28;20431;-59
2022/08/19 12:51:31;;;;;;;9.60;8.63;;;;;;;;;;5015600;28;20183;-58
2022/08/19 12:54:21;;;;;;;10.33;9.30;;;;;;;;;;4989166;28;20443;-58
2022/08/19 12:56:48;;;;;;;10.10;9.10;;;;;;;;;;5012285;28;20431;-58
2022/08/19 12:59:17;;;;;;;11.47;10.37;;;;;;;;;;4996409;28;20442;-57
2022/08/19 13:01:43;;;;;;;10.40;9.30;;;;;;;;;;5019811;28;20444;-58
2022/08/19 13:04:09;;;;;;;9.63;8.73;;;;;;;;;;4996774;28;20475;-60
2022/08/19 13:06:35;;;;;;;9.77;8.87;;;;;;;;;;5023981;28;20432;-58
2022/08/19 13:09:02;;;;;;;10.43;9.37;;;;;;;;;;5002621;28;20449;-57
2022/08/19 13:11:32;;;;;;;9.47;8.47;;;;;;;;;;5015566;28;20448;-58
2022/08/19 13:14:06;;;;;;;8.73;8.03;;;;;;;;;;5000675;28;20444;-60
2022/08/19 13:16:36;;;;;;;10.40;8.00;;;;;;;;;;5006404;28;20972;-58
2022/08/19 13:19:04;;;;;;;8.33;7.57;;;;;;;;;;5017686;28;20446;-59
2022/08/19 13:21:30;;;;;;;10.00;9.00;;;;;;;;;;5021145;28;20980;-56
2022/08/19 13:23:56;;;;;;;11.80;10.60;;;;;;;;;;4999421;28;20931;-58
2022/08/19 13:26:22;;;;;;;12.00;10.90;;;;;;;;;;5011978;28;20195;-58
2022/08/19 13:34:49;;;;;;;12.60;11.40;;;;;;;;;;4994847;28;21032;-59
2022/08/19 13:37:40;;;;;;;15.20;11.10;;;;;;;;;;5016601;28;20446;-56
2022/08/19 13:40:07;;;;;;;16.90;12.07;;;;;;;;;;4992249;28;20455;-58
2022/08/19 13:42:33;;;;;;;12.33;11.17;;;;;;;;;;5019342;28;20476;-57
2022/08/19 13:44:59;;;;;;;11.70;9.83;;;;;;;;;;4980961;28;20567;-57
2022/08/19 13:47:25;;;;;;;11.73;10.60;;;;;;;;;;5016880;28;20226;-57
2022/08/19 13:49:51;;;;;;;13.57;12.13;;;;;;;;;;5001766;28;20450;-57
2022/08/19 13:52:17;;;;;;;13.87;12.50;;;;;;;;;;5014011;28;20463;-59
2022/08/19 13:54:43;;;;;;;12.83;11.50;;;;;;;;;;5001767;28;20605;-59
2022/08/19 13:57:09;;;;;;;14.50;13.20;;;;;;;;;;5019017;28;20674;-59
2022/08/19 13:59:35;;;;;;;14.90;13.37;;;;;;;;;;5015889;28;20474;-58
2022/08/19 14:02:01;;;;;;;14.73;13.30;;;;;;;;;;5019673;28;20472;-66
2022/08/19 14:04:27;;;;;;;16.07;14.47;;;;;;;;;;4977658;28;20475;-56
2022/08/19 14:06:54;;;;;;;20.60;16.13;;;;;;;;;;5021434;28;20923;-61
2022/08/19 14:09:20;;;;;;;17.47;15.67;;;;;;;;;;4989376;28;20478;-58
2022/08/19 14:11:46;;;;;;;21.00;17.80;;;;;;;;;;5014795;28;20501;-54
2022/08/19 14:14:12;;;;;;;20.10;18.00;;;;;;;;;;4998072;28;20529;-55
2022/08/19 14:16:38;;;;;;;22.90;17.77;;;;;;;;;;5010772;28;20451;-54
2022/08/19 14:19:04;;;;;;;20.30;17.70;;;;;;;;;;4987263;28;20431;-54
2022/08/19 14:21:30;;;;;;;22.30;18.03;;;;;;;;;;5013116;28;20454;-54
2022/08/19 14:23:59;;;;;;;21.37;18.13;;;;;;;;;;5012804;28;20471;-56
2022/08/19 14:26:25;;;;;;;25.40;17.63;;;;;;;;;;5017614;28;20462;-57
2022/08/19 14:28:57;;;;;;;20.20;18.00;;;;;;;;;;4976067;28;20444;-57
2022/08/19 14:31:25;;;;;;;20.50;18.50;;;;;;;;;;4994965;28;20440;-56
2022/08/19 14:33:59;;;;;;;23.27;18.40;;;;;;;;;;5006293;28;20594;-54
2022/08/19 14:36:25;;;;;;;17.90;15.40;;;;;;;;;;5014554;28;20744;-53
2022/08/19 14:38:51;;;;;;;19.27;17.13;;;;;;;;;;4999268;28;20530;-56
2022/08/19 14:41:19;;;;;;;18.17;16.27;;;;;;;;;;5001801;28;20450;-55
2022/08/19 14:43:46;;;;;;;19.00;16.97;;;;;;;;;;5005508;28;20482;-55
2022/08/19 14:46:14;;;;;;;19.00;15.90;;;;;;;;;;4988837;28;20892;-54
2022/08/19 14:48:40;;;;;;;16.93;15.13;;;;;;;;;;5010718;28;20439;-55
2022/08/19 14:51:06;;;;;;;15.20;13.70;;;;;;;;;;5006542;28;20469;-57
2022/08/19 14:53:33;;;;;;;21.13;16.57;;;;;;;;;;4997680;28;20443;-54